Time;durP1;ratioP1;P1;durP2;ratioP2;P2;SDS_P1;SDS_P2;PMS_P1;PMS_P2;Temp;Humidity;BMP_temperature;BMP_pressure;BME280_temperature;BME280_humidity;BME280_pressure;Samples;Min_cycle;Max_cycle;Signal;HPM_P1;HPM_P2
2023/01/14 00:01:49;;;;;;;1.00;0.90;;;7.00;97.30;;;;;;4993753;28;20424;-83
2023/01/14 00:04:15;;;;;;;1.10;1.00;;;7.00;97.30;;;;;;4992368;28;20193;-85
2023/01/14 00:06:40;;;;;;;1.10;1.00;;;7.00;97.30;;;;;;4992491;28;20192;-82
2023/01/14 00:09:15;;;;;;;1.47;1.37;;;7.00;97.30;;;;;;4992270;28;20208;-83
2023/01/14 00:11:46;;;;;;;1.47;1.37;;;6.90;97.30;;;;;;4992421;28;20736;-84
2023/01/14 00:14:14;;;;;;;1.07;0.97;;;6.90;97.30;;;;;;4992072;28;20412;-84
2023/01/14 00:16:40;;;;;;;1.30;1.20;;;6.90;97.30;;;;;;4991305;28;20472;-81
2023/01/14 00:19:06;;;;;;;1.00;0.90;;;7.00;97.30;;;;;;4992154;28;20441;-83
2023/01/14 00:21:32;;;;;;;1.13;1.03;;;7.00;97.30;;;;;;4992267;28;20928;-85
2023/01/14 00:23:57;;;;;;;1.23;1.10;;;7.00;97.30;;;;;;4992046;28;20711;-84
2023/01/14 00:26:24;;;;;;;1.20;1.10;;;7.00;97.30;;;;;;4991584;28;20173;-85
2023/01/14 00:28:50;;;;;;;1.30;1.20;;;7.00;97.30;;;;;;4991935;28;20209;-83
2023/01/14 00:31:18;;;;;;;1.00;0.90;;;7.10;97.30;;;;;;4993171;28;20416;-85
2023/01/14 00:33:44;;;;;;;3.63;1.80;;;7.10;97.30;;;;;;4991656;28;20685;-84
2023/01/14 00:36:11;;;;;;;1.00;0.90;;;7.10;97.30;;;;;;4991831;28;20417;-83
2023/01/14 00:38:38;;;;;;;0.90;0.80;;;7.10;97.30;;;;;;4991931;28;20977;-84
2023/01/14 00:41:15;;;;;;;1.00;0.90;;;7.10;97.30;;;;;;4992101;28;20424;-84
2023/01/14 00:43:43;;;;;;;7.57;1.70;;;7.20;97.30;;;;;;4976226;28;20822;-85
2023/01/14 00:46:12;;;;;;;1.10;1.00;;;7.20;97.30;;;;;;4991912;28;20439;-85
2023/01/14 00:48:38;;;;;;;1.20;1.10;;;7.20;97.30;;;;;;4991767;28;20464;-86
2023/01/14 00:51:04;;;;;;;1.10;1.00;;;7.20;97.30;;;;;;4991778;28;20426;-84
2023/01/14 00:53:30;;;;;;;1.30;1.20;;;7.20;97.30;;;;;;4991690;28;20428;-86
2023/01/14 00:55:56;;;;;;;1.17;1.07;;;7.20;97.30;;;;;;4992021;28;20417;-85
2023/01/14 00:58:22;;;;;;;2.40;1.30;;;7.20;97.30;;;;;;4992076;28;20202;-88
2023/01/14 01:00:47;;;;;;;1.57;1.20;;;7.30;97.30;;;;;;4991087;28;20413;-83
2023/01/14 01:03:14;;;;;;;1.30;1.20;;;7.30;97.30;;;;;;4992130;28;20255;-81
2023/01/14 01:05:40;;;;;;;1.47;1.37;;;7.30;97.30;;;;;;4992245;28;20181;-86
2023/01/14 01:08:07;;;;;;;2.50;2.30;;;7.30;97.30;;;;;;4992056;28;20437;-84
2023/01/14 01:10:36;;;;;;;0.97;0.90;;;7.30;97.30;;;;;;4993341;28;20408;-85
2023/01/14 01:13:03;;;;;;;1.00;0.90;;;7.30;97.30;;;;;;4992056;28;20461;-86
2023/01/14 01:15:32;;;;;;;3.23;1.10;;;7.30;97.30;;;;;;4991977;28;20417;-85
2023/01/14 01:17:57;;;;;;;1.73;1.03;;;7.40;97.30;;;;;;4992125;28;20433;-86
2023/01/14 01:20:23;;;;;;;1.23;1.13;;;7.40;97.30;;;;;;4993001;28;20481;-85
2023/01/14 01:22:48;;;;;;;1.00;0.90;;;7.40;97.30;;;;;;4991960;28;20173;-85
2023/01/14 01:25:14;;;;;;;3.03;1.30;;;7.40;97.30;;;;;;4993325;28;20178;-86
2023/01/14 01:27:40;;;;;;;1.13;1.03;;;7.40;97.30;;;;;;4994361;28;20202;-83
2023/01/14 01:30:06;;;;;;;0.90;0.80;;;7.40;97.30;;;;;;4994212;28;20188;-85
2023/01/14 01:32:31;;;;;;;10.77;2.07;;;7.40;97.30;;;;;;4992174;28;20208;-83
2023/01/14 01:34:57;;;;;;;2.87;1.63;;;7.40;97.30;;;;;;4991619;28;20421;-86
2023/01/14 01:37:23;;;;;;;2.97;1.63;;;7.40;97.30;;;;;;4991459;28;20208;-85
2023/01/14 01:39:48;;;;;;;2.03;1.90;;;7.40;97.30;;;;;;4991094;28;20421;-85
2023/01/14 01:42:15;;;;;;;1.40;1.30;;;7.40;97.30;;;;;;4991362;28;20193;-85
2023/01/14 01:44:40;;;;;;;1.67;1.60;;;7.40;97.30;;;;;;4991447;28;20189;-84
2023/01/14 01:47:08;;;;;;;14.27;1.37;;;7.40;97.30;;;;;;4990687;28;20433;-85
2023/01/14 01:49:36;;;;;;;1.50;1.40;;;7.40;97.30;;;;;;4991063;28;20233;-85
2023/01/14 01:52:23;;;;;;;3.00;1.17;;;7.50;97.30;;;;;;4991012;28;20457;-85
2023/01/14 01:54:58;;;;;;;2.40;1.67;;;7.50;97.30;;;;;;4972220;28;20414;-84
2023/01/14 01:57:24;;;;;;;1.00;0.90;;;7.50;97.30;;;;;;4972342;28;20530;-85
2023/01/14 01:59:54;;;;;;;1.60;1.50;;;7.50;97.30;;;;;;4984450;28;20425;-84
2023/01/14 02:02:21;;;;;;;1.57;1.07;;;7.50;97.30;;;;;;4991273;28;20456;-85
2023/01/14 02:04:46;;;;;;;31.73;1.53;;;7.50;97.30;;;;;;4991571;28;20425;-87
2023/01/14 02:07:20;;;;;;;1.20;1.10;;;7.50;97.30;;;;;;4991759;28;20949;-85
2023/01/14 02:09:47;;;;;;;1.73;1.23;;;7.50;97.30;;;;;;4991386;28;20598;-84
2023/01/14 02:12:32;;;;;;;4.93;1.10;;;7.50;97.30;;;;;;4992174;28;21176;-85
2023/01/14 02:15:24;;;;;;;2.50;1.43;;;7.40;97.30;;;;;;4994836;28;20416;-85
2023/01/14 02:18:02;;;;;;;1.30;1.20;;;7.40;97.30;;;;;;4994340;28;20951;-85
2023/01/14 02:20:41;;;;;;;1.00;0.90;;;7.40;97.30;;;;;;4994729;28;20416;-85
2023/01/14 02:23:24;;;;;;;1.17;1.10;;;7.40;97.30;;;;;;4995577;28;20474;-85
2023/01/14 02:25:50;;;;;;;7.20;2.37;;;7.30;97.30;;;;;;4994815;28;20417;-85
2023/01/14 02:28:46;;;;;;;1.43;1.33;;;7.30;97.30;;;;;;4994687;28;20495;-85
2023/01/14 02:31:30;;;;;;;0.97;0.87;;;7.30;97.30;;;;;;4994178;28;20182;-87
2023/01/14 02:34:10;;;;;;;1.10;1.00;;;7.30;97.30;;;;;;4994470;28;20413;-85
2023/01/14 02:37:08;;;;;;;1.60;1.40;;;7.40;97.30;;;;;;4994886;28;20417;-84
2023/01/14 02:39:52;;;;;;;1.10;1.00;;;7.40;97.30;;;;;;4995879;28;20428;-84
2023/01/14 02:45:33;;;;;;;1.00;0.90;;;7.40;97.30;;;;;;4995874;28;20549;-84
2023/01/14 02:48:00;;;;;;;0.97;0.87;;;7.50;97.30;;;;;;5001488;28;20872;-84
2023/01/14 02:50:28;;;;;;;1.00;0.90;;;7.50;97.30;;;;;;4997933;28;20419;-86
2023/01/14 02:52:53;;;;;;;0.90;0.80;;;7.50;97.30;;;;;;4998274;28;20464;-85
2023/01/14 02:55:34;;;;;;;1.00;0.90;;;7.50;97.30;;;;;;4997797;28;20412;-85
2023/01/14 02:58:32;;;;;;;1.63;1.53;;;7.50;97.30;;;;;;4998218;28;20203;-81
2023/01/14 03:01:36;;;;;;;1.10;1.00;;;7.50;97.30;;;;;;5004993;28;20424;-90
2023/01/14 03:04:11;;;;;;;1.20;1.07;;;7.50;97.30;;;;;;5013968;28;20489;-86
2023/01/14 03:07:05;;;;;;;1.47;1.47;;;7.50;97.30;;;;;;5013617;28;20420;-86
2023/01/14 03:09:35;;;;;;;0.97;0.87;;;7.50;97.30;;;;;;5024454;28;20495;-87
2023/01/14 03:12:26;;;;;;;1.33;1.23;;;7.50;97.30;;;;;;5012002;28;20476;-87
2023/01/14 03:15:09;;;;;;;1.10;1.00;;;7.50;97.30;;;;;;5000643;28;20432;-83
2023/01/14 03:17:43;;;;;;;1.43;1.33;;;7.50;97.30;;;;;;4997048;28;20815;-85
2023/01/14 03:20:21;;;;;;;3.33;1.60;;;7.40;97.30;;;;;;4996438;28;20404;-86
2023/01/14 03:22:49;;;;;;;1.20;1.10;;;7.40;97.30;;;;;;4996499;28;20458;-85
2023/01/14 03:25:16;;;;;;;2.10;1.47;;;7.40;97.30;;;;;;4995597;28;20470;-84
2023/01/14 03:27:45;;;;;;;1.20;1.10;;;7.40;97.30;;;;;;4996258;28;20432;-84
2023/01/14 03:30:16;;;;;;;2.70;1.27;;;7.40;97.30;;;;;;4996022;28;20423;-87
2023/01/14 03:33:04;;;;;;;1.00;0.90;;;7.40;97.30;;;;;;4996253;28;21051;-87
2023/01/14 03:35:39;;;;;;;2.30;1.93;;;7.40;97.30;;;;;;5004162;28;20420;-85
2023/01/14 03:38:23;;;;;;;1.00;0.90;;;7.40;97.30;;;;;;5012528;28;20489;-85
2023/01/14 03:40:51;;;;;;;5.03;1.60;;;7.40;97.30;;;;;;5012452;28;20440;-84
2023/01/14 03:43:28;;;;;;;1.20;1.10;;;7.40;97.30;;;;;;5012404;28;20923;-84
2023/01/14 03:45:55;;;;;;;0.93;0.83;;;7.30;97.30;;;;;;5012270;28;20452;-86
2023/01/14 03:48:20;;;;;;;3.73;2.87;;;7.30;97.30;;;;;;5011961;28;20908;-85
2023/01/14 03:50:58;;;;;;;1.00;0.90;;;7.40;97.30;;;;;;5012128;28;20474;-85
2023/01/14 03:54:04;;;;;;;1.57;1.47;;;7.40;97.30;;;;;;5011950;28;20259;-87
2023/01/14 03:56:53;;;;;;;1.00;0.90;;;7.30;97.30;;;;;;4955584;28;20422;-85
2023/01/14 03:59:26;;;;;;;1.00;0.90;;;7.30;97.30;;;;;;5028037;28;20925;-85
2023/01/14 04:01:54;;;;;;;1.00;0.97;;;7.40;97.30;;;;;;4999692;28;20428;-85
2023/01/14 04:04:22;;;;;;;1.43;1.33;;;7.30;97.30;;;;;;4995337;28;20787;-84
2023/01/14 04:06:48;;;;;;;1.30;1.20;;;7.30;97.30;;;;;;4995467;28;20856;-85
2023/01/14 04:09:14;;;;;;;1.40;1.30;;;7.30;97.30;;;;;;5013073;28;20956;-85
2023/01/14 04:11:40;;;;;;;0.90;0.80;;;7.30;97.30;;;;;;4995077;28;20589;-85
2023/01/14 04:16:50;;;;;;;1.10;1.00;;;7.40;97.30;;;;;;5013395;28;20539;-85
2023/01/14 04:19:15;;;;;;;3.90;1.73;;;7.30;97.30;;;;;;4995509;28;20428;-85
2023/01/14 04:21:41;;;;;;;1.00;0.90;;;7.30;97.30;;;;;;4995355;28;20185;-84
2023/01/14 04:24:07;;;;;;;1.00;0.90;;;7.30;97.30;;;;;;4995540;28;20242;-82
2023/01/14 04:26:33;;;;;;;0.97;0.87;;;7.30;97.30;;;;;;5012825;28;20196;-84
2023/01/14 04:28:58;;;;;;;3.70;1.37;;;7.30;97.30;;;;;;4992790;28;20726;-84
2023/01/14 04:31:24;;;;;;;1.10;1.00;;;7.30;97.30;;;;;;4975614;28;20185;-85
2023/01/14 04:33:50;;;;;;;1.00;0.90;;;7.30;97.30;;;;;;4992016;28;20186;-85
2023/01/14 04:36:15;;;;;;;1.73;1.60;;;7.30;97.30;;;;;;4975705;28;20213;-84
2023/01/14 04:38:41;;;;;;;1.00;0.90;;;7.30;97.30;;;;;;4975908;28;20198;-84
2023/01/14 04:41:06;;;;;;;1.37;1.30;;;7.30;97.30;;;;;;4975802;28;20684;-84
2023/01/14 04:43:32;;;;;;;1.10;1.00;;;7.40;97.30;;;;;;4975879;28;20189;-85
2023/01/14 04:45:57;;;;;;;1.20;1.10;;;7.40;97.30;;;;;;4975486;28;20663;-84
2023/01/14 04:48:25;;;;;;;1.00;0.90;;;7.40;97.30;;;;;;4975552;28;20233;-84
2023/01/14 04:50:50;;;;;;;1.17;1.07;;;7.40;97.30;;;;;;4975310;28;20185;-85
2023/01/14 04:53:20;;;;;;;1.07;0.97;;;7.40;97.30;;;;;;4975571;28;20461;-83
2023/01/14 04:55:47;;;;;;;1.10;1.00;;;7.40;97.30;;;;;;4975911;28;20162;-84
2023/01/14 04:58:15;;;;;;;0.90;0.80;;;7.40;97.30;;;;;;4975739;28;20429;-85
2023/01/14 05:00:41;;;;;;;1.50;1.40;;;7.40;97.30;;;;;;4975332;28;20409;-85
2023/01/14 05:03:10;;;;;;;2.20;1.73;;;7.40;97.30;;;;;;4992927;28;20507;-85
2023/01/14 05:05:36;;;;;;;1.00;0.90;;;7.40;97.30;;;;;;4975542;28;20815;-86
2023/01/14 05:08:03;;;;;;;1.93;1.83;;;7.40;97.30;;;;;;4992833;28;20561;-83
2023/01/14 05:10:30;;;;;;;1.10;1.00;;;7.40;97.30;;;;;;4975862;28;20471;-85
2023/01/14 05:12:58;;;;;;;1.10;1.00;;;7.40;97.30;;;;;;4975655;28;20837;-85
2023/01/14 05:15:36;;;;;;;1.00;0.90;;;7.30;97.30;;;;;;4976651;28;20418;-83
2023/01/14 05:18:03;;;;;;;0.90;0.80;;;7.30;97.30;;;;;;4978512;28;20440;-87
2023/01/14 05:20:29;;;;;;;1.23;1.20;;;7.30;97.30;;;;;;4977740;28;20413;-84
2023/01/14 05:23:03;;;;;;;2.60;1.20;;;7.30;97.30;;;;;;4975115;28;20487;-84
2023/01/14 05:25:31;;;;;;;1.03;1.03;;;7.30;97.30;;;;;;4991485;28;20185;-84
2023/01/14 05:28:01;;;;;;;1.20;1.10;;;7.30;97.30;;;;;;4975187;28;20440;-84
2023/01/14 05:30:27;;;;;;;1.00;0.90;;;7.30;97.30;;;;;;4975229;28;20425;-85
2023/01/14 05:32:52;;;;;;;2.60;1.97;;;7.30;97.30;;;;;;4975205;28;20472;-85
2023/01/14 05:35:18;;;;;;;1.03;0.93;;;7.20;97.30;;;;;;4975083;28;20177;-84
2023/01/14 05:37:43;;;;;;;5.50;1.10;;;7.20;97.30;;;;;;4975087;28;20286;-85
2023/01/14 05:40:10;;;;;;;1.00;0.90;;;7.20;97.30;;;;;;4991363;28;20174;-84
2023/01/14 05:45:37;;;;;;;0.90;0.80;;;7.20;97.30;;;;;;4992952;28;20396;-85
2023/01/14 05:48:10;;;;;;;1.00;0.90;;;7.20;97.30;;;;;;4994156;28;20859;-84
2023/01/14 05:50:36;;;;;;;1.13;1.03;;;7.20;97.30;;;;;;4996286;23;21342;-86
2023/01/14 05:53:02;;;;;;;2.60;2.40;;;7.10;97.30;;;;;;5014386;28;20551;-87
2023/01/14 05:55:28;;;;;;;0.90;0.80;;;7.10;97.30;;;;;;4997963;28;20416;-87
2023/01/14 05:57:56;;;;;;;1.80;1.70;;;7.10;97.30;;;;;;4998093;28;20420;-88
2023/01/14 06:06:28;;;;;;;3.33;1.77;;;6.90;97.30;;;;;;4996309;28;20444;-86
2023/01/14 06:08:56;;;;;;;1.00;0.90;;;6.90;97.30;;;;;;4994642;28;20424;-86
2023/01/14 06:11:23;;;;;;;1.00;0.90;;;6.80;97.30;;;;;;4994301;28;20532;-87
2023/01/14 06:13:51;;;;;;;1.77;1.47;;;6.80;97.30;;;;;;4994751;28;20423;-88
2023/01/14 06:16:18;;;;;;;2.20;1.20;;;6.70;97.30;;;;;;4994820;28;20990;-88
2023/01/14 06:18:44;;;;;;;0.90;0.80;;;6.70;97.30;;;;;;4994614;28;20495;-86
2023/01/14 06:21:12;;;;;;;2.97;1.67;;;6.60;97.30;;;;;;4994565;28;20437;-88
2023/01/14 06:23:38;;;;;;;1.30;1.20;;;6.60;97.30;;;;;;4994512;28;20428;-87
2023/01/14 06:26:07;;;;;;;1.23;1.20;;;6.50;97.30;;;;;;4994268;28;20417;-87
2023/01/14 06:28:33;;;;;;;5.23;1.20;;;6.50;97.30;;;;;;4993019;28;20244;-87
2023/01/14 06:30:59;;;;;;;1.20;1.10;;;6.40;97.30;;;;;;4985208;28;21052;-88
2023/01/14 06:33:24;;;;;;;0.97;0.90;;;6.40;97.30;;;;;;4991722;28;20752;-88
2023/01/14 06:35:50;;;;;;;21.57;1.77;;;6.30;97.30;;;;;;4983776;28;20570;-87
2023/01/14 06:38:16;;;;;;;7.93;1.20;;;6.30;97.30;;;;;;4983696;28;20178;-88
2023/01/14 06:40:44;;;;;;;2.57;2.43;;;6.20;97.30;;;;;;4985991;28;20198;-88
2023/01/14 06:43:10;;;;;;;1.20;1.10;;;6.20;97.30;;;;;;4993453;28;20492;-89
2023/01/14 06:45:36;;;;;;;1.10;1.07;;;6.20;97.30;;;;;;4992408;28;20437;-87
2023/01/14 06:48:01;;;;;;;1.10;1.00;;;6.20;97.30;;;;;;4991982;28;20425;-88
2023/01/14 06:50:27;;;;;;;1.00;0.90;;;6.10;97.30;;;;;;4991800;28;20201;-88
2023/01/14 06:52:53;;;;;;;1.03;0.93;;;6.10;97.30;;;;;;4991824;28;20341;-87
2023/01/14 06:55:20;;;;;;;0.90;0.80;;;6.10;97.30;;;;;;4992012;28;20339;-88
2023/01/14 06:57:45;;;;;;;0.93;0.80;;;6.10;97.30;;;;;;4991351;28;20174;-87
2023/01/14 07:00:12;;;;;;;1.27;1.17;;;6.10;97.30;;;;;;4990612;28;20475;-88
2023/01/14 07:02:38;;;;;;;1.20;1.10;;;6.00;97.30;;;;;;4990732;28;20218;-89
2023/01/14 07:05:04;;;;;;;2.20;1.10;;;6.00;97.30;;;;;;5007156;28;20928;-88
2023/01/14 07:07:29;;;;;;;2.50;1.57;;;6.00;97.30;;;;;;4982413;28;20487;-88
2023/01/14 07:09:55;;;;;;;1.00;0.90;;;6.00;97.30;;;;;;4989915;28;20256;-88
2023/01/14 07:12:20;;;;;;;1.10;1.00;;;5.90;97.30;;;;;;4990613;28;20297;-88
2023/01/14 07:14:46;;;;;;;1.10;1.00;;;5.90;97.30;;;;;;4990000;28;20182;-87
2023/01/14 07:17:12;;;;;;;3.60;2.70;;;5.90;97.30;;;;;;4990884;28;20182;-88
2023/01/14 07:19:37;;;;;;;1.00;0.90;;;6.00;97.30;;;;;;4992004;28;20174;-88
2023/01/14 07:22:02;;;;;;;1.17;1.07;;;6.00;97.30;;;;;;4991283;28;20277;-87
2023/01/14 07:24:28;;;;;;;1.17;1.07;;;6.00;97.30;;;;;;4991026;28;20640;-88
2023/01/14 07:26:53;;;;;;;1.30;1.20;;;6.00;97.30;;;;;;4984238;28;20179;-86
2023/01/14 07:29:19;;;;;;;20.57;2.40;;;6.00;97.30;;;;;;4976200;28;20664;-88
2023/01/14 07:31:44;;;;;;;1.20;1.10;;;6.10;97.30;;;;;;4976951;28;20349;-89
2023/01/14 07:34:10;;;;;;;1.23;1.13;;;6.10;97.30;;;;;;4980984;28;20181;-88
2023/01/14 07:36:36;;;;;;;2.30;1.83;;;6.10;97.30;;;;;;4982846;28;20193;-87
2023/01/14 07:39:01;;;;;;;1.60;1.50;;;6.10;97.30;;;;;;4974559;28;20178;-86
2023/01/14 07:41:27;;;;;;;1.00;0.90;;;6.10;97.30;;;;;;4972611;28;20198;-85
2023/01/14 07:43:53;;;;;;;1.00;0.90;;;6.10;97.30;;;;;;4973682;28;20190;-90
2023/01/14 07:46:18;;;;;;;1.57;1.47;;;6.10;97.30;;;;;;4973974;28;20175;-88
2023/01/14 07:48:44;;;;;;;1.00;0.90;;;6.10;97.30;;;;;;4972078;28;20446;-87
2023/01/14 07:51:11;;;;;;;2.07;1.93;;;6.20;97.30;;;;;;4971809;28;20696;-88
2023/01/14 07:53:36;;;;;;;1.37;1.27;;;6.20;97.30;;;;;;4971817;28;20472;-88
2023/01/14 07:56:06;;;;;;;1.07;1.00;;;6.20;97.30;;;;;;4972877;28;20426;-87
2023/01/14 07:58:33;;;;;;;0.97;0.87;;;6.20;97.30;;;;;;4973129;28;20179;-87
2023/01/14 08:01:06;;;;;;;2.00;1.90;;;6.20;97.30;;;;;;4971881;28;20466;-88
2023/01/14 08:03:32;;;;;;;10.13;2.80;;;6.30;97.30;;;;;;4972479;28;20517;-87
2023/01/14 08:06:09;;;;;;;1.10;1.00;;;6.30;97.30;;;;;;4978291;28;21011;-88
2023/01/14 08:08:42;;;;;;;1.10;1.00;;;6.30;97.30;;;;;;4971178;28;20187;-88
2023/01/14 08:11:07;;;;;;;1.10;1.10;;;6.30;97.30;;;;;;4978730;28;20445;-87
2023/01/14 08:13:40;;;;;;;6.20;2.77;;;6.40;97.30;;;;;;4999163;28;20486;-87
2023/01/14 08:16:08;;;;;;;2.57;1.30;;;6.40;97.30;;;;;;4981917;28;20822;-87
2023/01/14 08:19:02;;;;;;;1.90;1.87;;;6.50;97.30;;;;;;4994597;28;20428;-88
2023/01/14 08:21:28;;;;;;;1.63;1.53;;;6.50;97.30;;;;;;5001611;23;20572;-87
2023/01/14 08:23:53;;;;;;;2.70;1.27;;;6.50;97.30;;;;;;4977397;28;20440;-88
2023/01/14 08:26:19;;;;;;;6.80;1.87;;;6.60;97.30;;;;;;4968184;28;20179;-87
2023/01/14 08:28:44;;;;;;;1.10;1.00;;;6.70;97.30;;;;;;4957956;28;20274;-85
2023/01/14 08:31:13;;;;;;;1.00;0.90;;;6.70;97.30;;;;;;4957827;28;20194;-88
2023/01/14 08:33:41;;;;;;;1.20;1.10;;;6.80;97.30;;;;;;4979143;28;20198;-86
2023/01/14 08:36:13;;;;;;;2.60;1.50;;;6.90;97.30;;;;;;4969953;28;20433;-87
2023/01/14 08:38:40;;;;;;;2.27;1.40;;;6.90;97.30;;;;;;4969004;28;20425;-87
2023/01/14 08:41:08;;;;;;;1.00;0.90;;;7.00;97.30;;;;;;4968750;28;20436;-87
2023/01/14 08:43:34;;;;;;;1.00;0.90;;;7.10;97.30;;;;;;4980572;28;20937;-87
2023/01/14 08:46:00;;;;;;;1.10;1.00;;;7.10;97.30;;;;;;4993335;28;20510;-86
2023/01/14 08:48:27;;;;;;;1.30;1.20;;;7.00;97.30;;;;;;4977894;28;20197;-87
2023/01/14 08:50:53;;;;;;;1.33;1.23;;;7.00;97.30;;;;;;4975842;28;20437;-86
2023/01/14 08:53:19;;;;;;;1.00;0.90;;;7.00;97.30;;;;;;4975828;28;20469;-86
2023/01/14 08:55:44;;;;;;;3.63;2.97;;;7.10;97.30;;;;;;4976127;28;20173;-88
2023/01/14 08:58:10;;;;;;;1.10;1.00;;;7.20;97.30;;;;;;4991965;28;20425;-87
2023/01/14 09:00:35;;;;;;;3.70;1.30;;;7.30;97.30;;;;;;4991975;28;20220;-86
2023/01/14 09:03:01;;;;;;;1.23;1.13;;;7.40;97.30;;;;;;4992052;28;20265;-88
2023/01/14 09:05:26;;;;;;;1.97;1.10;;;7.50;97.30;;;;;;4991923;28;20857;-86
2023/01/14 09:18:52;;;;;;;1.00;0.90;;;7.70;97.30;;;;;;4990566;28;20428;-87
2023/01/14 09:21:17;;;;;;;2.80;1.73;;;7.70;97.30;;;;;;4976380;28;20465;-86
2023/01/14 09:23:43;;;;;;;1.30;1.20;;;7.70;97.30;;;;;;4979733;28;20177;-87
2023/01/14 09:26:20;;;;;;;1.50;1.40;;;7.80;97.30;;;;;;4980298;28;20201;-87
2023/01/14 09:28:46;;;;;;;1.97;1.50;;;7.80;97.30;;;;;;4977380;28;20248;-86
2023/01/14 09:31:11;;;;;;;2.13;1.47;;;7.90;97.30;;;;;;4959980;28;20485;-87
2023/01/14 09:33:37;;;;;;;0.93;0.83;;;7.90;97.30;;;;;;4960448;28;20505;-87
2023/01/14 09:36:03;;;;;;;1.53;1.43;;;8.00;97.30;;;;;;4974295;28;20253;-86
2023/01/14 09:38:31;;;;;;;1.20;1.10;;;8.00;97.30;;;;;;5008318;28;20248;-87
2023/01/14 09:40:57;;;;;;;2.13;1.60;;;8.00;97.30;;;;;;4991459;28;20440;-86
2023/01/14 09:43:24;;;;;;;2.13;1.97;;;8.00;97.30;;;;;;4971735;28;20826;-88
2023/01/14 09:45:56;;;;;;;1.20;1.10;;;8.10;97.30;;;;;;4984768;28;20190;-88
2023/01/14 09:48:23;;;;;;;7.50;2.13;;;8.10;97.30;;;;;;4973562;28;20440;-87
2023/01/14 09:51:02;;;;;;;1.53;1.43;;;8.10;97.30;;;;;;4967496;28;20460;-86
2023/01/14 09:53:36;;;;;;;1.27;1.17;;;8.20;97.30;;;;;;4975028;28;20510;-88
2023/01/14 09:56:11;;;;;;;1.43;1.23;;;8.30;97.30;;;;;;4993484;28;20470;-86
2023/01/14 09:58:52;;;;;;;1.50;1.40;;;8.30;97.30;;;;;;4963215;28;20429;-89
2023/01/14 10:01:22;;;;;;;1.30;1.20;;;8.40;97.30;;;;;;4957707;28;20476;-89
2023/01/14 10:04:17;;;;;;;3.40;3.20;;;8.50;97.30;;;;;;4959509;28;20422;-89
2023/01/14 10:06:47;;;;;;;1.30;1.07;;;8.50;97.20;;;;;;4963941;28;20433;-88
2023/01/14 10:09:20;;;;;;;4.10;2.83;;;8.60;97.30;;;;;;4968125;28;20425;-89
2023/01/14 10:11:47;;;;;;;2.73;1.33;;;8.60;96.90;;;;;;4993555;28;20503;-86
2023/01/14 10:14:18;;;;;;;3.03;2.17;;;8.60;96.80;;;;;;4977652;28;20425;-89
2023/01/14 10:16:50;;;;;;;9.43;1.30;;;8.60;96.80;;;;;;4981105;28;20669;-86
2023/01/14 10:19:34;;;;;;;1.20;1.10;;;8.70;96.60;;;;;;4957727;28;20416;-89
2023/01/14 10:22:09;;;;;;;1.93;1.83;;;8.70;96.60;;;;;;4958242;28;20489;-88
2023/01/14 10:24:42;;;;;;;1.20;1.10;;;8.70;96.00;;;;;;4958291;28;20417;-86
2023/01/14 10:27:14;;;;;;;1.07;0.97;;;8.70;96.10;;;;;;4958229;28;20430;-87
2023/01/14 10:29:40;;;;;;;1.00;0.90;;;8.70;96.40;;;;;;4958561;28;20422;-88
2023/01/14 10:32:11;;;;;;;1.33;1.20;;;8.70;95.80;;;;;;4958053;28;20509;-86
2023/01/14 10:34:42;;;;;;;1.27;1.17;;;8.80;95.80;;;;;;4962056;28;20929;-88
2023/01/14 10:37:09;;;;;;;1.20;1.10;;;8.80;95.80;;;;;;4977167;28;20421;-88
2023/01/14 10:39:35;;;;;;;1.00;0.90;;;8.80;95.80;;;;;;4977111;28;20946;-86
2023/01/14 10:42:03;;;;;;;1.87;1.77;;;8.80;95.60;;;;;;4993753;28;20437;-87
2023/01/14 10:44:37;;;;;;;1.57;1.47;;;8.80;96.00;;;;;;4993867;28;20807;-86
2023/01/14 10:47:08;;;;;;;1.67;1.57;;;8.80;96.00;;;;;;4993756;28;20843;-85
2023/01/14 10:49:47;;;;;;;1.10;1.00;;;8.80;96.00;;;;;;4977492;28;20468;-85
2023/01/14 10:52:27;;;;;;;1.10;1.00;;;8.80;95.80;;;;;;4993689;28;21014;-87
2023/01/14 10:55:25;;;;;;;1.73;1.63;;;8.70;96.00;;;;;;4977487;28;20416;-88
2023/01/14 10:58:08;;;;;;;1.83;1.73;;;8.80;96.00;;;;;;4942976;28;20456;-89
2023/01/14 11:00:42;;;;;;;1.40;1.30;;;8.80;96.00;;;;;;4993439;28;20794;-89
2023/01/14 11:03:19;;;;;;;1.47;1.43;;;8.80;96.30;;;;;;4993183;28;20699;-90
2023/01/14 11:06:04;;;;;;;1.40;1.30;;;8.80;96.30;;;;;;4975517;28;20433;-86
2023/01/14 11:08:32;;;;;;;1.97;1.87;;;8.90;96.40;;;;;;4976014;28;20437;-86
2023/01/14 11:11:04;;;;;;;1.57;1.47;;;9.00;96.40;;;;;;4971005;28;21075;-85
2023/01/14 11:13:41;;;;;;;17.70;1.30;;;9.00;96.10;;;;;;4977408;28;20559;-89
2023/01/14 11:16:30;;;;;;;3.73;2.17;;;9.10;96.10;;;;;;4976842;28;20527;-88
2023/01/14 11:18:57;;;;;;;10.20;2.13;;;9.10;95.60;;;;;;4993886;28;20457;-88
2023/01/14 11:21:25;;;;;;;1.20;1.10;;;9.00;95.50;;;;;;4976117;28;20472;-88
2023/01/14 11:24:03;;;;;;;2.93;2.00;;;9.00;95.70;;;;;;4993405;28;21162;-89
2023/01/14 11:26:31;;;;;;;1.20;1.10;;;9.00;95.80;;;;;;4976557;28;20913;-90
2023/01/14 11:29:14;;;;;;;1.20;1.10;;;9.00;95.90;;;;;;4994172;28;20453;-86
2023/01/14 11:31:41;;;;;;;1.10;1.00;;;9.00;96.00;;;;;;4976195;28;20436;-88
2023/01/14 11:34:37;;;;;;;1.63;1.50;;;8.90;95.80;;;;;;4981440;28;20417;-86
2023/01/14 11:37:17;;;;;;;1.53;1.40;;;8.90;96.00;;;;;;4948189;28;20418;-88
2023/01/14 11:40:00;;;;;;;7.47;1.30;;;8.80;96.20;;;;;;4974891;28;20493;-88
2023/01/14 11:43:03;;;;;;;4.87;1.10;;;8.80;96.30;;;;;;4960211;28;21011;-85
2023/01/14 11:45:29;;;;;;;1.13;1.03;;;8.80;96.70;;;;;;4950436;28;20441;-86
2023/01/14 11:47:56;;;;;;;2.70;2.50;;;8.80;96.70;;;;;;4964445;28;20414;-88
2023/01/14 11:53:04;;;;;;;1.10;1.00;;;8.70;97.00;;;;;;5034982;23;20485;-86
2023/01/14 11:55:34;;;;;;;8.07;2.20;;;8.80;97.20;;;;;;4993339;28;20424;-85
2023/01/14 11:58:18;;;;;;;1.20;1.10;;;8.80;97.10;;;;;;4995338;28;20414;-86
2023/01/14 12:00:53;;;;;;;1.47;1.37;;;8.70;97.20;;;;;;4996054;28;20429;-86
2023/01/14 12:03:39;;;;;;;2.03;1.90;;;8.70;97.30;;;;;;5003947;28;20416;-86
2023/01/14 12:06:17;;;;;;;2.70;2.50;;;8.80;97.30;;;;;;5005304;28;20411;-85
2023/01/14 12:08:49;;;;;;;1.10;1.00;;;8.70;97.30;;;;;;5022656;28;20408;-86
2023/01/14 12:11:33;;;;;;;7.73;2.50;;;8.70;97.30;;;;;;5007644;28;20438;-86
2023/01/14 12:17:03;;;;;;;2.20;1.87;;;8.80;97.30;;;;;;5032229;28;20410;-86
2023/01/14 12:19:49;;;;;;;1.63;1.23;;;8.80;97.30;;;;;;5013931;28;20411;-86
2023/01/14 12:22:25;;;;;;;1.63;1.03;;;8.80;97.30;;;;;;5013843;28;20435;-84
2023/01/14 12:25:03;;;;;;;1.43;1.37;;;8.80;97.30;;;;;;4996620;28;20938;-86
2023/01/14 12:28:01;;;;;;;1.10;1.00;;;8.80;97.30;;;;;;4995170;28;20420;-87
2023/01/14 12:30:57;;;;;;;1.10;1.00;;;8.80;97.30;;;;;;4994794;28;20413;-87
2023/01/14 12:33:31;;;;;;;5.23;1.43;;;8.80;97.30;;;;;;4998864;28;20463;-85
2023/01/14 12:36:17;;;;;;;1.53;1.13;;;8.80;97.30;;;;;;5020129;28;20419;-85
2023/01/14 12:47:41;;;;;;;1.00;0.90;;;8.80;97.30;;;;;;5011380;28;20427;-86
2023/01/14 12:50:09;;;;;;;1.77;1.67;;;8.70;97.30;;;;;;5003771;28;20482;-85
2023/01/14 12:52:38;;;;;;;3.03;2.07;;;8.70;97.30;;;;;;5010892;28;20554;-86
2023/01/14 12:55:05;;;;;;;1.23;1.13;;;8.70;97.30;;;;;;5009665;28;20850;-86
2023/01/14 12:57:38;;;;;;;20.70;2.67;;;8.70;97.30;;;;;;5011836;28;20459;-87
2023/01/14 13:00:09;;;;;;;4.07;3.83;;;8.70;97.30;;;;;;4994701;28;20420;-85
2023/01/14 13:02:42;;;;;;;2.40;2.07;;;8.70;97.30;;;;;;4995630;28;20467;-85
2023/01/14 13:05:26;;;;;;;1.10;1.00;;;8.70;97.30;;;;;;4994641;28;20514;-84
2023/01/14 13:07:56;;;;;;;1.17;1.17;;;8.70;97.30;;;;;;4993019;28;20507;-86
2023/01/14 13:10:26;;;;;;;1.73;1.57;;;8.70;97.30;;;;;;4992770;28;20859;-87
2023/01/14 13:12:52;;;;;;;1.33;1.23;;;8.70;97.30;;;;;;5011322;28;20488;-84
2023/01/14 13:15:17;;;;;;;2.03;1.40;;;8.70;97.20;;;;;;4992418;28;20420;-86
2023/01/14 13:17:50;;;;;;;3.23;1.40;;;8.70;97.20;;;;;;4991841;28;20419;-87
2023/01/14 13:20:19;;;;;;;1.00;0.90;;;8.80;97.20;;;;;;4992306;28;20209;-86
2023/01/14 13:22:48;;;;;;;1.00;0.90;;;8.80;96.90;;;;;;5010323;28;21032;-86
2023/01/14 13:25:31;;;;;;;2.60;2.33;;;8.80;96.80;;;;;;5017516;28;20972;-86
2023/01/14 13:27:57;;;;;;;4.43;1.83;;;8.80;96.80;;;;;;5013510;28;20478;-88
2023/01/14 13:30:22;;;;;;;1.00;0.90;;;8.80;97.00;;;;;;4992922;28;20424;-85
2023/01/14 13:33:00;;;;;;;2.93;0.90;;;8.80;97.00;;;;;;4991662;28;20687;-85
2023/01/14 13:35:27;;;;;;;1.07;0.97;;;8.80;97.20;;;;;;5004112;28;20249;-85
2023/01/14 13:37:55;;;;;;;1.07;0.97;;;8.70;97.10;;;;;;5012695;28;20407;-83
2023/01/14 13:40:28;;;;;;;5.53;1.77;;;8.70;97.10;;;;;;5012809;28;20407;-84
2023/01/14 13:43:04;;;;;;;1.03;0.93;;;8.70;96.90;;;;;;5014136;28;20450;-85
2023/01/14 13:45:34;;;;;;;0.90;0.90;;;8.70;97.00;;;;;;4998084;28;20478;-87
2023/01/14 13:48:34;;;;;;;1.47;1.37;;;8.70;97.20;;;;;;4992634;28;20417;-86
2023/01/14 13:51:17;;;;;;;1.00;0.90;;;8.70;97.20;;;;;;4988394;28;20447;-85
2023/01/14 13:53:54;;;;;;;3.07;2.03;;;8.70;97.30;;;;;;4993866;28;20467;-85
2023/01/14 13:56:22;;;;;;;1.40;1.30;;;8.70;97.30;;;;;;4994411;28;20412;-85
2023/01/14 13:58:52;;;;;;;1.30;1.20;;;8.60;97.30;;;;;;4993559;28;20815;-83